Time;durP1;ratioP1;P1;durP2;ratioP2;P2;SDS_P1;SDS_P2;PMS_P1;PMS_P2;Temp;Humidity;BMP_temperature;BMP_pressure;BME280_temperature;BME280_humidity;BME280_pressure;Samples;Min_cycle;Max_cycle;Signal;HPM_P1;HPM_P2
2023/04/05 00:02:17;;;;;;;6.50;2.42;;;1.10;99.90;;;;;;4973547;28;20100;-82
2023/04/05 00:05:04;;;;;;;6.90;2.70;;;1.10;99.90;;;;;;4996210;28;20050;-79
2023/04/05 00:07:53;;;;;;;10.35;2.60;;;1.10;99.90;;;;;;4990685;28;20057;-78
2023/04/05 00:10:39;;;;;;;6.10;2.40;;;1.00;99.90;;;;;;4973908;28;20050;-81
2023/04/05 00:13:25;;;;;;;6.72;2.33;;;0.90;99.90;;;;;;4992185;28;20141;-80
2023/04/05 00:16:11;;;;;;;7.00;2.20;;;0.90;99.90;;;;;;4991287;28;20050;-78
2023/04/05 00:18:59;;;;;;;8.43;2.53;;;0.80;99.90;;;;;;4967054;28;20054;-78
2023/04/05 00:21:45;;;;;;;7.20;2.40;;;0.80;99.90;;;;;;4990401;28;20054;-77
2023/04/05 00:24:32;;;;;;;5.35;2.17;;;0.80;99.90;;;;;;4990949;28;20061;-79
2023/04/05 00:27:19;;;;;;;5.45;2.13;;;0.70;99.90;;;;;;4973991;28;20051;-77
2023/04/05 00:30:05;;;;;;;8.82;2.58;;;0.70;99.90;;;;;;4990230;28;20104;-78
2023/04/05 00:32:51;;;;;;;6.65;2.33;;;0.70;99.90;;;;;;4991916;28;20058;-77
2023/04/05 00:35:37;;;;;;;5.25;2.17;;;0.60;99.90;;;;;;4993257;28;20053;-80
2023/04/05 00:38:23;;;;;;;8.13;2.20;;;0.60;99.90;;;;;;4991301;28;20050;-82
2023/04/05 00:41:10;;;;;;;9.32;2.10;;;0.60;99.90;;;;;;4990203;28;20085;-80
2023/04/05 00:43:56;;;;;;;7.25;2.53;;;0.50;99.90;;;;;;4991966;28;20773;-80
2023/04/05 00:46:42;;;;;;;6.22;2.60;;;0.50;99.90;;;;;;4991487;28;20423;-79
2023/04/05 00:49:33;;;;;;;8.77;2.55;;;0.50;99.90;;;;;;4980085;28;20054;-80
2023/04/05 00:52:22;;;;;;;6.03;1.90;;;0.50;99.90;;;;;;4972702;28;20177;-81
2023/04/05 00:55:09;;;;;;;7.75;2.70;;;0.40;99.90;;;;;;4990314;28;20102;-80
2023/04/05 00:57:55;;;;;;;10.30;2.92;;;0.40;99.90;;;;;;4990713;28;20565;-80
2023/04/05 01:00:46;;;;;;;8.30;2.20;;;0.30;99.90;;;;;;4991316;28;20112;-79
2023/04/05 01:03:35;;;;;;;7.32;2.40;;;0.30;99.90;;;;;;4977578;28;20061;-79
2023/04/05 01:06:40;;;;;;;6.57;2.60;;;0.30;99.90;;;;;;4963374;28;20137;-79
2023/04/05 01:09:35;;;;;;;5.55;2.47;;;0.30;99.90;;;;;;4963607;28;20129;-78
2023/04/05 01:12:26;;;;;;;5.55;1.73;;;0.20;99.90;;;;;;4976673;28;20069;-79
2023/04/05 01:15:12;;;;;;;5.63;2.10;;;0.20;99.90;;;;;;4994539;28;20050;-80
2023/04/05 01:18:00;;;;;;;5.82;2.42;;;0.20;99.90;;;;;;4992819;28;20532;-78
2023/04/05 01:21:36;;;;;;;9.73;2.97;;;0.20;99.90;;;;;;4963550;28;20058;-79
2023/04/05 01:24:49;;;;;;;7.32;2.00;;;0.10;99.90;;;;;;4976918;28;20069;-79
2023/04/05 01:27:54;;;;;;;9.73;2.58;;;0.10;99.90;;;;;;4995794;28;20060;-79
2023/04/05 01:30:48;;;;;;;6.10;2.38;;;0.10;99.90;;;;;;4994705;28;20112;-79
2023/04/05 01:33:57;;;;;;;6.40;2.22;;;0.10;99.90;;;;;;4995334;28;20054;-79
2023/04/05 01:36:48;;;;;;;6.82;2.38;;;0.10;99.90;;;;;;4967975;28;20070;-80
2023/04/05 01:39:35;;;;;;;6.85;2.47;;;0.00;99.90;;;;;;4994080;28;20133;-80
2023/04/05 01:42:24;;;;;;;5.95;2.67;;;0.00;99.90;;;;;;4978939;28;20399;-78
2023/04/05 01:45:10;;;;;;;10.10;3.03;;;0.00;99.90;;;;;;4966541;28;20058;-79
2023/04/05 01:47:56;;;;;;;6.47;2.55;;;0.00;99.90;;;;;;4990896;28;20054;-79
2023/04/05 01:50:42;;;;;;;6.45;2.83;;;-0.10;99.90;;;;;;4994483;28;20058;-79
2023/04/05 01:53:29;;;;;;;9.80;3.45;;;-0.10;99.90;;;;;;4982183;28;20152;-79
2023/04/05 01:56:15;;;;;;;9.77;3.80;;;-0.10;99.90;;;;;;4994603;28;20065;-79
2023/04/05 01:59:01;;;;;;;7.70;2.70;;;-0.10;99.90;;;;;;4995572;28;20080;-79
2023/04/05 02:01:47;;;;;;;7.25;2.40;;;-0.20;99.90;;;;;;4978227;28;20057;-78
2023/04/05 02:04:34;;;;;;;7.38;2.70;;;-0.20;99.90;;;;;;4993592;28;20058;-80
2023/04/05 02:07:20;;;;;;;7.03;2.45;;;-0.20;99.90;;;;;;4979172;28;20049;-79
2023/04/05 02:10:07;;;;;;;8.00;3.28;;;-0.20;99.90;;;;;;4985856;28;20046;-79
2023/04/05 02:12:53;;;;;;;8.23;3.22;;;-0.30;99.90;;;;;;4993510;28;20661;-78
2023/04/05 02:15:39;;;;;;;8.60;2.92;;;-0.30;99.90;;;;;;4993568;28;20058;-79
2023/04/05 02:18:31;;;;;;;8.65;3.00;;;-0.30;99.90;;;;;;4975670;28;20196;-79
2023/04/05 02:21:20;;;;;;;7.20;3.28;;;-0.30;99.90;;;;;;4976508;28;20053;-79
2023/04/05 02:24:06;;;;;;;8.50;3.20;;;-0.30;99.90;;;;;;4992963;28;20051;-79
2023/04/05 02:26:53;;;;;;;6.05;2.83;;;-0.30;99.90;;;;;;4993975;28;20054;-81
2023/04/05 02:29:39;;;;;;;8.90;4.03;;;-0.30;99.90;;;;;;4998168;28;20046;-79
2023/04/05 02:32:25;;;;;;;10.35;3.25;;;-0.30;99.90;;;;;;4992909;28;20060;-80
2023/04/05 02:35:11;;;;;;;8.35;3.72;;;-0.30;99.90;;;;;;4992348;28;20141;-79
2023/04/05 02:37:57;;;;;;;8.13;3.47;;;-0.40;99.90;;;;;;4992537;28;20050;-79
2023/04/05 02:40:48;;;;;;;7.50;3.35;;;-0.40;99.90;;;;;;4992193;28;20065;-80
2023/04/05 02:43:34;;;;;;;7.00;3.50;;;-0.40;99.90;;;;;;4997038;28;20049;-79
2023/04/05 02:46:20;;;;;;;10.40;3.60;;;-0.40;99.90;;;;;;4993173;28;20056;-79
2023/04/05 02:49:06;;;;;;;7.93;2.95;;;-0.40;99.90;;;;;;4993233;28;20046;-80
2023/04/05 02:51:54;;;;;;;11.52;4.68;;;-0.50;99.90;;;;;;4992597;28;20465;-79
2023/04/05 02:54:40;;;;;;;11.48;4.00;;;-0.50;99.90;;;;;;4992459;28;20050;-79
2023/04/05 02:57:26;;;;;;;9.13;3.70;;;-0.50;99.90;;;;;;4993588;28;20050;-79
2023/04/05 03:00:13;;;;;;;9.77;4.00;;;-0.60;99.90;;;;;;5000640;28;20081;-80
2023/04/05 03:02:59;;;;;;;8.23;3.22;;;-0.60;99.90;;;;;;4992538;28;20518;-79
2023/04/05 03:05:47;;;;;;;12.18;4.53;;;-0.60;99.90;;;;;;4992420;28;20155;-79
2023/04/05 03:08:35;;;;;;;7.57;3.42;;;-0.60;99.90;;;;;;4992833;28;20050;-79
2023/04/05 03:11:21;;;;;;;11.07;4.18;;;-0.60;99.90;;;;;;4992030;28;20046;-79
2023/04/05 03:14:07;;;;;;;7.85;4.22;;;-0.60;99.90;;;;;;4975203;28;20491;-79
2023/04/05 03:16:54;;;;;;;10.90;4.72;;;-0.60;99.90;;;;;;4995619;28;20141;-79
2023/04/05 03:19:40;;;;;;;14.07;5.53;;;-0.70;99.90;;;;;;4992492;28;20525;-79
2023/04/05 03:22:26;;;;;;;12.63;4.35;;;-0.70;99.90;;;;;;4990530;28;20145;-79
2023/04/05 03:25:12;;;;;;;10.23;4.28;;;-0.70;99.90;;;;;;4991702;28;20364;-79
2023/04/05 03:27:58;;;;;;;12.15;4.68;;;-0.70;99.90;;;;;;4977675;28;20054;-79
2023/04/05 03:30:44;;;;;;;13.13;5.25;;;-0.70;99.90;;;;;;4992109;28;20134;-79
2023/04/05 03:33:30;;;;;;;9.45;4.47;;;-0.80;99.90;;;;;;4990945;28;20785;-79
2023/04/05 03:36:18;;;;;;;13.65;7.00;;;-0.80;99.90;;;;;;4997053;28;20054;-79
2023/04/05 03:39:05;;;;;;;20.90;7.03;;;-0.80;99.90;;;;;;4973935;28;20061;-79
2023/04/05 03:41:51;;;;;;;13.35;5.68;;;-0.80;99.90;;;;;;4993063;28;20090;-79
2023/04/05 03:44:37;;;;;;;11.30;4.40;;;-0.80;99.90;;;;;;4992024;28;20050;-79
2023/04/05 03:47:23;;;;;;;10.32;4.72;;;-0.80;99.90;;;;;;4990136;28;20046;-79
2023/04/05 03:50:10;;;;;;;10.32;4.72;;;-0.80;99.90;;;;;;4974201;28;20137;-79
2023/04/05 03:52:56;;;;;;;15.63;5.20;;;-0.80;99.90;;;;;;4995504;28;20046;-79
2023/04/05 03:55:49;;;;;;;17.42;5.35;;;-0.90;99.90;;;;;;4990758;28;20202;-79
2023/04/05 03:58:36;;;;;;;12.63;6.18;;;-0.90;99.90;;;;;;4992861;28;20046;-79
2023/04/05 04:01:22;;;;;;;10.77;4.57;;;-0.90;99.90;;;;;;4991874;28;20054;-80
2023/04/05 04:04:08;;;;;;;13.60;5.90;;;-0.90;99.90;;;;;;4991560;28;20410;-80
2023/04/05 04:06:55;;;;;;;15.05;5.40;;;-0.90;99.90;;;;;;4991583;28;20406;-80
2023/04/05 04:09:41;;;;;;;17.55;6.25;;;-0.90;99.90;;;;;;4998631;28;20054;-78
2023/04/05 04:12:27;;;;;;;12.30;5.53;;;-0.90;99.90;;;;;;4993844;28;20054;-80
2023/04/05 04:15:13;;;;;;;11.63;4.85;;;-0.90;99.90;;;;;;4989855;28;20058;-80
2023/04/05 04:17:59;;;;;;;11.75;5.28;;;-0.90;99.90;;;;;;4990950;28;20050;-80
2023/04/05 04:20:46;;;;;;;13.98;5.07;;;-0.90;99.90;;;;;;4990791;28;20046;-80
2023/04/05 04:23:37;;;;;;;16.50;5.35;;;-0.90;99.90;;;;;;4991740;28;20058;-79
2023/04/05 04:26:27;;;;;;;12.30;5.85;;;-0.90;99.90;;;;;;4991279;28;20049;-79
2023/04/05 04:29:17;;;;;;;12.75;5.93;;;-1.00;99.90;;;;;;4996511;28;20048;-79
2023/04/05 04:32:05;;;;;;;18.42;7.03;;;-1.00;99.90;;;;;;4990500;28;20527;-78
2023/04/05 04:34:54;;;;;;;13.13;5.85;;;-1.00;99.90;;;;;;4991836;28;20196;-80
2023/04/05 04:37:46;;;;;;;9.38;4.45;;;-1.00;99.90;;;;;;4991350;28;20050;-79
2023/04/05 04:41:07;;;;;;;13.57;5.45;;;-1.00;99.90;;;;;;4989468;28;20062;-79
2023/04/05 04:43:46;;;;;;;15.65;6.05;;;-1.10;99.90;;;;;;4973416;28;20088;-78
2023/04/05 04:46:41;;;;;;;12.30;5.75;;;-1.10;99.90;;;;;;4996781;28;20054;-79
2023/04/05 04:49:28;;;;;;;15.98;6.13;;;-1.10;99.90;;;;;;4976939;28;20171;-79
2023/04/05 04:52:15;;;;;;;17.27;5.60;;;-1.10;99.90;;;;;;4990464;28;20770;-79
2023/04/05 04:55:01;;;;;;;15.52;6.03;;;-1.10;99.90;;;;;;4991691;28;20046;-79
2023/04/05 04:57:51;;;;;;;14.75;6.82;;;-1.10;99.90;;;;;;4991895;28;20054;-79
2023/04/05 05:00:40;;;;;;;14.80;7.45;;;-1.00;99.90;;;;;;4991678;28;20050;-79
2023/04/05 05:03:26;;;;;;;17.75;6.95;;;-1.00;99.90;;;;;;4990873;28;20108;-79
2023/04/05 05:06:16;;;;;;;14.43;7.45;;;-1.10;99.90;;;;;;4993131;28;20047;-79
2023/04/05 05:09:02;;;;;;;18.42;7.13;;;-1.10;99.90;;;;;;4974235;28;20054;-78
2023/04/05 05:11:48;;;;;;;15.82;6.72;;;-1.00;99.90;;;;;;4991039;28;20498;-79
2023/04/05 05:14:34;;;;;;;14.88;6.85;;;-1.00;99.90;;;;;;4973092;28;20137;-79
2023/04/05 05:17:22;;;;;;;15.32;6.93;;;-1.10;99.90;;;;;;4972867;28;20410;-79
2023/04/05 05:20:09;;;;;;;16.83;7.63;;;-1.00;99.90;;;;;;4990124;28;20387;-79
2023/04/05 05:22:57;;;;;;;16.30;6.63;;;-1.00;99.90;;;;;;4991135;28;20133;-79
2023/04/05 05:25:43;;;;;;;15.75;7.15;;;-1.00;99.90;;;;;;4995617;28;20046;-78
2023/04/05 05:28:29;;;;;;;14.40;7.18;;;-0.90;99.90;;;;;;4959355;28;20057;-79
2023/04/05 05:31:16;;;;;;;17.60;8.10;;;-0.90;99.90;;;;;;4973660;28;20061;-78
2023/04/05 05:34:02;;;;;;;13.73;6.60;;;-0.90;99.90;;;;;;4991049;28;20469;-78
2023/04/05 05:36:48;;;;;;;18.38;7.43;;;-0.90;99.90;;;;;;4990944;28;20054;-79
2023/04/05 05:39:35;;;;;;;13.27;6.22;;;-0.80;99.90;;;;;;4973256;28;20077;-78
2023/04/05 05:42:21;;;;;;;13.52;5.68;;;-0.80;99.90;;;;;;4958502;28;20047;-79
2023/04/05 05:45:08;;;;;;;18.13;7.97;;;-0.70;99.90;;;;;;4972121;28;20443;-79
2023/04/05 05:47:55;;;;;;;14.40;6.32;;;-0.60;99.90;;;;;;4955305;28;20450;-80
2023/04/05 05:50:43;;;;;;;14.13;6.65;;;-0.50;99.90;;;;;;4954877;28;20114;-79
2023/04/05 05:53:29;;;;;;;11.73;6.40;;;-0.40;99.90;;;;;;4956061;28;20496;-79
2023/04/05 05:56:15;;;;;;;14.05;6.38;;;-0.30;99.90;;;;;;4976459;28;20054;-79
2023/04/05 05:59:02;;;;;;;20.33;8.18;;;-0.20;99.90;;;;;;4945098;28;20057;-79
2023/04/05 06:01:50;;;;;;;17.67;8.90;;;-0.10;99.90;;;;;;4983466;28;20130;-80
2023/04/05 06:04:36;;;;;;;15.63;7.50;;;0.10;99.90;;;;;;4975497;28;20461;-79
2023/04/05 06:07:22;;;;;;;20.17;8.88;;;0.20;99.90;;;;;;4975407;28;20143;-79
2023/04/05 06:10:10;;;;;;;18.13;9.38;;;0.30;99.90;;;;;;4975559;28;20086;-80
2023/04/05 06:12:56;;;;;;;19.80;10.20;;;0.50;99.90;;;;;;4975671;28;20043;-78
2023/04/05 06:15:43;;;;;;;22.42;9.00;;;0.70;99.90;;;;;;4974615;28;20062;-78
2023/04/05 06:18:29;;;;;;;19.45;9.75;;;0.90;99.90;;;;;;4958838;28;20073;-79
2023/04/05 06:21:16;;;;;;;17.95;8.95;;;1.00;99.90;;;;;;4960450;28;20058;-78
2023/04/05 06:24:02;;;;;;;18.13;9.43;;;1.20;99.90;;;;;;4973513;28;20081;-78
2023/04/05 06:26:50;;;;;;;18.50;9.27;;;1.30;99.90;;;;;;4975511;28;20138;-79
2023/04/05 06:29:36;;;;;;;19.23;10.25;;;1.50;99.90;;;;;;4974616;28;20062;-79
2023/04/05 06:32:22;;;;;;;21.08;10.55;;;1.60;99.90;;;;;;4973643;28;20097;-79
2023/04/05 06:35:08;;;;;;;18.95;9.13;;;1.80;99.90;;;;;;4975165;28;20058;-79
2023/04/05 06:37:54;;;;;;;16.83;9.13;;;2.00;99.90;;;;;;4964059;28;20505;-80
2023/04/05 06:40:40;;;;;;;23.65;9.52;;;2.10;99.90;;;;;;4984528;28;20050;-79
2023/04/05 06:43:26;;;;;;;24.05;8.95;;;2.30;99.90;;;;;;4992339;28;20073;-80
2023/04/05 06:46:13;;;;;;;17.88;9.38;;;2.50;99.90;;;;;;4978246;28;20057;-80
2023/04/05 06:48:59;;;;;;;17.15;10.45;;;2.60;99.90;;;;;;4979032;28;20538;-80
2023/04/05 06:51:45;;;;;;;19.35;8.43;;;2.80;99.90;;;;;;5013611;28;20046;-78
2023/04/05 06:54:33;;;;;;;17.40;9.02;;;3.10;99.90;;;;;;5016970;28;20120;-80
2023/04/05 06:57:19;;;;;;;24.25;9.77;;;3.20;99.90;;;;;;5012103;28;20103;-79
2023/04/05 07:00:10;;;;;;;16.60;9.05;;;3.40;99.90;;;;;;5013673;28;20077;-80
2023/04/05 07:02:56;;;;;;;18.92;8.93;;;3.50;99.90;;;;;;5013939;28;20056;-80
2023/04/05 07:05:56;;;;;;;15.00;8.40;;;3.70;99.90;;;;;;5013714;28;20501;-78
2023/04/05 07:08:42;;;;;;;19.25;8.98;;;3.90;99.90;;;;;;5012477;28;20065;-78
2023/04/05 07:11:31;;;;;;;16.67;9.30;;;4.00;99.90;;;;;;4996502;28;20068;-79
2023/04/05 07:14:17;;;;;;;17.70;8.93;;;4.20;99.90;;;;;;4998859;28;20049;-79
2023/04/05 07:17:07;;;;;;;17.45;8.63;;;4.30;99.90;;;;;;4998475;28;20056;-79
2023/04/05 07:19:53;;;;;;;19.55;9.48;;;4.50;99.90;;;;;;4994172;28;20080;-77
2023/04/05 07:22:39;;;;;;;20.10;8.88;;;4.70;99.90;;;;;;5012224;28;20042;-77
2023/04/05 07:25:26;;;;;;;20.30;9.07;;;4.90;99.90;;;;;;5012443;28;20144;-77
2023/04/05 07:28:12;;;;;;;15.30;9.05;;;5.10;99.90;;;;;;5017311;28;20054;-77
2023/04/05 07:30:58;;;;;;;14.88;8.50;;;5.20;99.90;;;;;;5011842;28;20050;-77
2023/04/05 07:33:44;;;;;;;15.07;7.78;;;5.30;99.90;;;;;;5011552;28;20520;-77
2023/04/05 07:36:31;;;;;;;13.02;7.47;;;5.30;99.90;;;;;;4996843;28;20057;-77
2023/04/05 07:39:18;;;;;;;16.75;8.93;;;5.50;99.90;;;;;;4994872;28;20061;-77
2023/04/05 07:42:05;;;;;;;14.98;8.18;;;5.60;99.90;;;;;;5010913;28;20141;-77
2023/04/05 07:44:51;;;;;;;17.17;9.15;;;5.70;99.90;;;;;;4994664;28;20486;-78
2023/04/05 07:47:37;;;;;;;19.85;9.25;;;5.80;99.90;;;;;;5010720;28;20509;-79
2023/04/05 07:50:23;;;;;;;17.83;9.13;;;6.00;99.90;;;;;;4996477;28;20559;-78
2023/04/05 07:53:09;;;;;;;15.45;7.90;;;6.20;99.90;;;;;;5004392;28;20145;-78
2023/04/05 07:55:56;;;;;;;15.15;8.10;;;6.30;99.90;;;;;;5015663;28;20053;-79
2023/04/05 07:58:43;;;;;;;16.35;8.82;;;6.40;99.90;;;;;;4993170;28;20149;-79
2023/04/05 08:01:30;;;;;;;14.30;8.10;;;6.60;99.90;;;;;;4996951;28;20050;-78
2023/04/05 08:04:16;;;;;;;15.23;8.82;;;6.80;99.90;;;;;;5011507;28;20140;-78
2023/04/05 08:07:02;;;;;;;16.27;7.63;;;6.90;99.90;;;;;;5011195;28;20054;-79
2023/04/05 08:09:48;;;;;;;16.83;7.95;;;7.10;99.90;;;;;;5011771;28;20560;-79
2023/04/05 08:12:34;;;;;;;15.45;9.10;;;7.10;99.90;;;;;;5011148;28;20108;-80
2023/04/05 08:15:20;;;;;;;12.65;6.90;;;7.30;99.90;;;;;;5010683;28;20560;-81
2023/04/05 08:18:06;;;;;;;11.10;6.95;;;7.50;99.90;;;;;;5011623;28;20050;-79
2023/04/05 08:20:56;;;;;;;11.50;7.47;;;7.70;99.90;;;;;;5000483;28;20058;-79
2023/04/05 08:23:42;;;;;;;13.75;8.23;;;7.80;99.90;;;;;;4993130;28;20062;-81
2023/04/05 08:26:28;;;;;;;12.13;7.50;;;8.00;99.90;;;;;;5010660;28;20049;-79
2023/04/05 08:29:15;;;;;;;13.38;6.43;;;7.90;99.90;;;;;;4993275;28;20064;-80
2023/04/05 08:32:01;;;;;;;12.75;7.45;;;8.10;99.80;;;;;;4992929;28;20046;-77
2023/04/05 08:34:47;;;;;;;14.00;7.15;;;8.30;99.60;;;;;;5009530;28;20057;-76
2023/04/05 08:37:34;;;;;;;12.02;7.07;;;8.50;99.40;;;;;;4992805;28;20192;-77
2023/04/05 08:40:21;;;;;;;13.55;6.43;;;8.70;99.50;;;;;;4990531;28;20054;-76
2023/04/05 08:43:49;;;;;;;10.18;6.97;;;8.90;98.70;;;;;;4992845;28;20104;-81
2023/04/05 08:46:35;;;;;;;11.57;5.72;;;8.90;95.20;;;;;;4992260;28;20058;-79
2023/04/05 08:49:22;;;;;;;12.27;6.88;;;9.10;97.30;;;;;;4993927;28;20042;-79
2023/04/05 08:52:09;;;;;;;11.93;6.80;;;9.20;97.40;;;;;;4998433;28;20047;-81
2023/04/05 08:54:55;;;;;;;10.85;5.53;;;9.50;97.60;;;;;;4990628;28;20112;-77
2023/04/05 08:57:47;;;;;;;12.80;6.78;;;9.40;96.40;;;;;;4973874;28;20069;-78
2023/04/05 09:00:34;;;;;;;10.57;5.90;;;9.50;95.80;;;;;;4991133;28;20050;-78
2023/04/05 09:03:26;;;;;;;8.98;5.60;;;9.70;95.80;;;;;;4991667;28;20647;-80
2023/04/05 09:06:14;;;;;;;10.25;5.95;;;9.70;94.90;;;;;;4973630;28;20054;-78
2023/04/05 09:09:04;;;;;;;9.88;5.57;;;9.90;94.60;;;;;;4989757;28;20050;-79
2023/04/05 09:11:51;;;;;;;9.63;5.72;;;10.20;94.80;;;;;;4991272;28;20085;-78
2023/04/05 09:14:40;;;;;;;10.48;5.85;;;10.30;94.20;;;;;;4990546;28;20054;-80
2023/04/05 09:17:27;;;;;;;9.60;5.90;;;10.40;93.40;;;;;;4990602;28;20093;-79
2023/04/05 09:20:13;;;;;;;9.77;5.78;;;10.50;93.70;;;;;;4995964;28;20054;-82
2023/04/05 09:22:59;;;;;;;10.20;5.28;;;10.60;92.90;;;;;;5004270;28;20042;-78
2023/04/05 09:25:46;;;;;;;9.25;5.10;;;10.70;92.10;;;;;;4989298;28;20053;-79
2023/04/05 09:28:42;;;;;;;10.18;5.28;;;10.70;90.70;;;;;;4992342;28;20502;-79
2023/04/05 09:31:33;;;;;;;14.25;5.60;;;10.80;89.90;;;;;;4994800;28;20070;-79
2023/04/05 09:34:23;;;;;;;11.10;5.22;;;10.90;86.70;;;;;;4996615;28;20116;-80
2023/04/05 09:37:20;;;;;;;9.57;4.78;;;10.90;87.90;;;;;;4979962;28;20294;-81
2023/04/05 09:40:08;;;;;;;14.60;5.57;;;11.10;85.20;;;;;;4985263;28;20065;-80
2023/04/05 09:42:55;;;;;;;10.30;4.80;;;11.00;84.50;;;;;;4996561;28;20050;-80
2023/04/05 09:45:42;;;;;;;13.05;5.57;;;11.10;83.10;;;;;;4995076;28;20430;-80
2023/04/05 09:48:50;;;;;;;10.70;5.13;;;11.20;82.20;;;;;;4995461;28;20054;-79
2023/04/05 09:51:38;;;;;;;12.43;5.88;;;11.30;81.00;;;;;;4994975;28;20643;-78
2023/04/05 09:54:24;;;;;;;12.65;5.65;;;11.60;83.10;;;;;;4995372;28;20448;-80
2023/04/05 09:57:16;;;;;;;13.27;5.53;;;11.80;82.60;;;;;;4994768;28;20058;-80
2023/04/05 10:00:09;;;;;;;11.63;5.40;;;12.00;81.70;;;;;;4996272;28;20133;-84
2023/04/05 10:02:55;;;;;;;12.18;5.43;;;12.00;81.60;;;;;;5001475;28;20058;-80
2023/04/05 10:05:43;;;;;;;9.30;4.07;;;12.20;82.70;;;;;;4977387;28;20113;-79
2023/04/05 10:08:30;;;;;;;8.60;4.32;;;12.30;79.30;;;;;;4993140;28;20105;-81
2023/04/05 10:11:18;;;;;;;8.85;4.07;;;12.20;78.70;;;;;;4993653;28;20046;-79
2023/04/05 10:14:07;;;;;;;8.52;4.70;;;12.30;77.50;;;;;;4993639;28;20660;-82
2023/04/05 10:17:24;;;;;;;9.27;4.40;;;12.30;78.30;;;;;;4994616;28;20108;-84
2023/04/05 10:20:22;;;;;;;8.52;4.43;;;12.50;76.20;;;;;;4982595;28;20057;-87
2023/04/05 10:23:11;;;;;;;7.53;4.40;;;12.50;77.50;;;;;;4975189;28;20604;-77
2023/04/05 10:26:16;;;;;;;10.05;4.82;;;12.60;78.80;;;;;;4979068;28;20529;-80
2023/04/05 10:29:11;;;;;;;9.20;4.72;;;13.00;77.70;;;;;;4993905;28;20137;-77
2023/04/05 10:32:07;;;;;;;14.63;5.40;;;13.20;75.20;;;;;;4975418;28;20069;-78
2023/04/05 10:35:07;;;;;;;14.10;5.80;;;13.30;75.90;;;;;;4992587;28;20094;-82
2023/04/05 10:38:00;;;;;;;9.57;4.70;;;13.20;74.30;;;;;;4992021;28;20106;-80
2023/04/05 10:40:48;;;;;;;9.32;5.40;;;13.20;72.90;;;;;;4986673;28;20046;-77
2023/04/05 10:43:38;;;;;;;9.65;4.65;;;13.30;74.20;;;;;;4985225;28;20054;-81
2023/04/05 10:46:25;;;;;;;14.05;5.45;;;13.60;76.80;;;;;;4993651;28;20393;-79
2023/04/05 10:49:25;;;;;;;7.75;4.75;;;13.40;72.40;;;;;;4993423;28;20062;-79
2023/04/05 10:52:12;;;;;;;13.18;5.25;;;12.80;72.70;;;;;;4992121;28;20054;-79
2023/04/05 10:55:02;;;;;;;7.55;4.85;;;13.30;73.90;;;;;;4979529;28;20054;-78
2023/04/05 10:57:49;;;;;;;9.40;5.47;;;13.90;72.50;;;;;;4992822;28;20042;-81
2023/04/05 11:00:35;;;;;;;8.63;5.35;;;14.00;70.60;;;;;;4999892;28;20054;-81
2023/04/05 11:03:43;;;;;;;8.90;5.75;;;14.30;69.80;;;;;;4995538;28;20092;-84
2023/04/05 11:06:29;;;;;;;11.25;5.55;;;14.30;65.10;;;;;;4975097;28;20141;-85
2023/04/05 11:09:17;;;;;;;8.18;4.68;;;14.20;65.50;;;;;;4992405;28;20573;-79
2023/04/05 11:12:03;;;;;;;11.55;4.88;;;14.10;67.10;;;;;;4992811;28;20050;-78
2023/04/05 11:14:49;;;;;;;10.02;4.82;;;14.10;66.40;;;;;;4975483;28;20077;-77
2023/04/05 11:17:36;;;;;;;8.95;5.18;;;14.30;65.50;;;;;;4992070;28;20112;-83
2023/04/05 11:20:22;;;;;;;8.52;5.10;;;14.40;64.20;;;;;;4993044;28;20170;-83
2023/04/05 11:23:13;;;;;;;8.35;4.72;;;14.90;65.20;;;;;;4992302;28;20053;-79
2023/04/05 11:26:05;;;;;;;9.18;4.60;;;15.20;64.50;;;;;;4991799;28;20058;-79
2023/04/05 11:28:56;;;;;;;7.88;3.97;;;15.40;63.30;;;;;;4991757;28;20831;-84
2023/04/05 11:32:00;;;;;;;8.18;4.50;;;15.80;61.90;;;;;;4991356;28;20054;-86
2023/04/05 11:35:05;;;;;;;8.88;4.57;;;16.40;61.10;;;;;;4974955;28;20141;-83
2023/04/05 11:37:55;;;;;;;;;;;16.60;58.40;;;;;;4992768;28;20141;-86
2023/04/05 11:40:42;;;;;;;9.48;4.93;;;16.30;54.80;;;;;;4992327;28;19948;-79
2023/04/05 11:43:29;;;;;;;7.95;4.43;;;16.50;55.90;;;;;;4992826;28;20483;-83
2023/04/05 11:46:15;;;;;;;7.72;4.25;;;16.70;55.10;;;;;;4994554;28;20050;-86
2023/04/05 11:49:01;;;;;;;10.15;4.47;;;16.40;52.10;;;;;;4981929;28;20062;-77
2023/04/05 11:51:49;;;;;;;9.35;4.72;;;16.30;53.00;;;;;;5004145;28;20057;-86
2023/04/05 11:54:35;;;;;;;10.02;4.47;;;16.60;51.40;;;;;;4999074;28;20050;-81
2023/04/05 11:57:22;;;;;;;8.48;4.32;;;17.30;54.10;;;;;;4962296;28;20054;-85
2023/04/05 12:00:09;;;;;;;9.57;4.38;;;17.20;51.70;;;;;;4973857;28;20470;-87
2023/04/05 12:02:55;;;;;;;10.57;4.05;;;17.70;49.10;;;;;;4987851;28;20102;-81
2023/04/05 12:05:52;;;;;;;10.98;4.80;;;17.90;48.80;;;;;;4960831;28;20046;-81
2023/04/05 12:08:50;;;;;;;7.88;4.47;;;18.30;48.50;;;;;;4978174;28;20054;-79
2023/04/05 12:11:39;;;;;;;7.22;4.43;;;18.40;46.20;;;;;;4991011;28;20517;-83
2023/04/05 12:14:26;;;;;;;8.30;4.22;;;18.20;47.10;;;;;;4991384;28;20042;-83
2023/04/05 12:17:38;;;;;;;7.97;4.00;;;18.20;45.50;;;;;;4991257;28;20089;-84
2023/04/05 12:20:25;;;;;;;8.75;3.65;;;18.30;43.80;;;;;;4974346;28;20054;-83
2023/04/05 12:23:11;;;;;;;9.38;4.70;;;18.40;45.50;;;;;;4991665;28;20054;-85
2023/04/05 12:25:58;;;;;;;10.85;4.38;;;18.20;43.40;;;;;;4990686;28;20438;-88
2023/04/05 12:28:59;;;;;;;10.27;4.72;;;19.30;45.50;;;;;;4977539;28;20054;-87
2023/04/05 12:31:45;;;;;;;7.75;4.53;;;19.30;43.90;;;;;;4991005;28;20042;-81
2023/04/05 12:34:35;;;;;;;6.75;3.47;;;19.90;42.50;;;;;;4995811;28;20050;-85
2023/04/05 12:37:26;;;;;;;8.10;3.63;;;20.30;41.50;;;;;;4991077;28;20054;-86
2023/04/05 12:40:13;;;;;;;7.03;4.15;;;20.60;40.50;;;;;;4972804;28;20085;-85
2023/04/05 12:43:04;;;;;;;6.57;4.22;;;20.40;40.10;;;;;;4960252;28;20057;-88
2023/04/05 12:45:55;;;;;;;10.27;3.80;;;20.90;39.80;;;;;;4991840;28;20053;-83
2023/04/05 12:48:41;;;;;;;7.60;3.72;;;21.70;39.80;;;;;;4991555;28;20042;-87
2023/04/05 12:51:31;;;;;;;8.35;4.45;;;21.30;38.40;;;;;;4992896;28;20502;-84
2023/04/05 12:54:24;;;;;;;7.85;4.75;;;21.70;38.70;;;;;;4990846;28;20133;-79
2023/04/05 12:57:11;;;;;;;8.32;4.07;;;21.70;38.50;;;;;;4989866;28;20469;-84
2023/04/05 12:59:57;;;;;;;8.48;4.50;;;22.20;38.40;;;;;;4990812;28;20096;-85
2023/04/05 13:02:48;;;;;;;8.43;4.07;;;22.60;37.70;;;;;;4989476;28;20050;-80
2023/04/05 13:05:34;;;;;;;7.38;3.92;;;23.00;37.50;;;;;;4992999;28;20120;-78
2023/04/05 13:08:20;;;;;;;7.90;3.80;;;24.00;38.20;;;;;;4977726;28;20077;-79
2023/04/05 13:11:06;;;;;;;7.40;4.50;;;23.80;36.00;;;;;;4974270;28;20050;-79
2023/04/05 13:13:53;;;;;;;7.65;3.95;;;23.40;35.50;;;;;;4992396;28;20141;-79
2023/04/05 13:16:39;;;;;;;8.40;4.13;;;23.70;36.90;;;;;;4998741;28;20058;-85
2023/04/05 13:19:25;;;;;;;7.40;4.07;;;23.80;35.90;;;;;;4977700;28;20254;-86
2023/04/05 13:22:11;;;;;;;5.95;4.13;;;23.80;34.70;;;;;;4987464;28;20050;-79
2023/04/05 13:24:57;;;;;;;7.82;4.20;;;25.00;35.50;;;;;;4974912;28;20105;-81
2023/04/05 13:27:43;;;;;;;6.63;4.00;;;25.60;35.30;;;;;;4992283;28;20053;-84
2023/04/05 13:30:30;;;;;;;10.98;3.55;;;26.10;34.00;;;;;;4973388;28;20490;-83
2023/04/05 13:33:17;;;;;;;9.75;4.45;;;26.10;33.60;;;;;;4972799;28;20050;-87
2023/04/05 13:36:04;;;;;;;6.57;4.10;;;26.30;33.80;;;;;;4989376;28;20054;-78
2023/04/05 13:38:52;;;;;;;12.25;4.35;;;26.00;32.30;;;;;;4989987;28;20142;-80
2023/04/05 13:41:38;;;;;;;7.13;4.10;;;25.90;31.90;;;;;;4988869;28;20062;-81
2023/04/05 13:44:24;;;;;;;7.65;3.90;;;26.70;32.30;;;;;;4990762;28;20054;-83
2023/04/05 13:47:10;;;;;;;7.15;3.78;;;26.50;32.00;;;;;;4990941;28;20085;-79
2023/04/05 13:49:56;;;;;;;7.78;4.00;;;26.50;31.70;;;;;;4990050;28;20069;-81
2023/04/05 13:52:43;;;;;;;7.63;4.05;;;27.10;31.70;;;;;;4990102;28;20062;-82
2023/04/05 13:55:29;;;;;;;5.70;3.63;;;26.90;31.50;;;;;;4990978;28;20128;-85
2023/04/05 13:58:15;;;;;;;7.65;4.00;;;26.70;30.80;;;;;;4990545;28;20057;-86
2023/04/05 14:01:02;;;;;;;7.93;3.60;;;27.20;31.30;;;;;;4973489;28;20186;-78
2023/04/05 14:03:48;;;;;;;6.25;3.50;;;26.90;31.00;;;;;;4993927;28;20141;-79
2023/04/05 14:06:34;;;;;;;6.20;3.55;;;27.30;30.90;;;;;;4973493;28;20058;-83
2023/04/05 14:09:20;;;;;;;9.15;4.40;;;27.10;30.10;;;;;;4991139;28;20050;-82
2023/04/05 14:12:06;;;;;;;6.95;4.10;;;27.50;30.50;;;;;;4974192;28;20141;-88
2023/04/05 14:14:53;;;;;;;11.75;3.75;;;27.90;30.30;;;;;;4995535;28;20133;-87
2023/04/05 14:17:39;;;;;;;6.32;3.70;;;27.90;30.20;;;;;;4995130;28;20116;-81
2023/04/05 14:20:26;;;;;;;6.35;3.20;;;27.70;30.20;;;;;;5004701;28;20058;-78
2023/04/05 14:23:12;;;;;;;6.57;3.90;;;27.50;30.20;;;;;;4998348;28;20058;-83
2023/04/05 14:25:58;;;;;;;5.80;4.15;;;28.00;30.80;;;;;;5001051;28;20054;-78
2023/04/05 14:28:44;;;;;;;7.70;4.05;;;28.20;30.30;;;;;;4993675;28;20050;-80
2023/04/05 14:31:30;;;;;;;10.15;4.22;;;28.30;30.30;;;;;;4993420;28;20046;-80
2023/04/05 14:34:18;;;;;;;6.03;3.17;;;28.30;30.50;;;;;;4978539;28;20042;-80
2023/04/05 14:37:05;;;;;;;6.45;3.67;;;28.10;30.00;;;;;;4979250;28;20473;-79